Time,TemperatureF,DewpointF,PressureIn,WindDirection,WindDirectionDegrees,WindSpeedMPH,WindSpeedGustMPH,Humidity,HourlyPrecipIn,Conditions,Clouds,dailyrainin,SolarRadiationWatts/m^2,SoftwareType,DateUTC
2013-10-26 00:07:00,44.6,33.0,30.62,NNW,331,0.0,0.0,63,0.00,,,0.00,0,weatherlink.com 1.10,2013-10-26 06:07:00,
2013-10-26 00:22:00,43.8,32.0,30.62,NNW,331,0.0,0.0,64,0.00,,,0.00,0,weatherlink.com 1.10,2013-10-26 06:22:00,
2013-10-26 00:37:00,43.6,32.0,30.62,NNW,331,0.0,0.0,64,0.00,,,0.00,0,weatherlink.com 1.10,2013-10-26 06:37:00,
2013-10-26 00:52:00,42.7,32.0,30.62,NNW,331,0.0,0.0,65,0.00,,,0.00,0,weatherlink.com 1.10,2013-10-26 06:52:00,
2013-10-26 01:07:00,43.4,32.0,30.63,NNW,331,0.0,0.0,65,0.00,,,0.00,0,weatherlink.com 1.10,2013-10-26 07:07:00,
2013-10-26 01:22:00,42.5,33.0,30.63,NNW,331,0.0,0.0,68,0.00,,,0.00,0,weatherlink.com 1.10,2013-10-26 07:22:00,
2013-10-26 01:37:00,41.8,32.0,30.63,NNW,331,0.0,0.0,69,0.00,,,0.00,0,weatherlink.com 1.10,2013-10-26 07:37:00,
2013-10-26 01:52:00,41.1,32.0,30.64,NNW,331,0.0,0.0,69,0.00,,,0.00,0,weatherlink.com 1.10,2013-10-26 07:52:00,
2013-10-26 02:07:00,40.6,32.0,30.64,NNW,331,0.0,0.0,70,0.00,,,0.00,0,weatherlink.com 1.10,2013-10-26 08:07:00,
2013-10-26 02:22:00,40.5,32.0,30.64,NNW,331,0.0,0.0,71,0.00,,,0.00,0,weatherlink.com 1.10,2013-10-26 08:22:00,
2013-10-26 02:37:00,40.0,32.0,30.64,NNW,331,0.0,0.0,72,0.00,,,0.00,0,weatherlink.com 1.10,2013-10-26 08:37:00,
2013-10-26 02:52:00,39.8,31.0,30.64,NNW,331,0.0,0.0,72,0.00,,,0.00,0,weatherlink.com 1.10,2013-10-26 08:52:00,
2013-10-26 03:07:00,39.2,31.0,30.64,NNW,331,0.0,0.0,73,0.00,,,0.00,0,weatherlink.com 1.10,2013-10-26 09:07:00,
2013-10-26 03:22:00,38.4,31.0,30.65,NNW,331,0.0,0.0,74,0.00,,,0.00,0,weatherlink.com 1.10,2013-10-26 09:22:00,
2013-10-26 03:37:00,38.4,31.0,30.65,NNW,331,0.0,0.0,75,0.00,,,0.00,0,weatherlink.com 1.10,2013-10-26 09:37:00,
2013-10-26 03:52:00,38.2,31.0,30.65,NNW,331,0.0,0.0,75,0.00,,,0.00,0,weatherlink.com 1.10,2013-10-26 09:52:00,
2013-10-26 04:07:00,38.3,31.0,30.65,NNW,331,0.0,0.0,75,0.00,,,0.00,0,weatherlink.com 1.10,2013-10-26 10:07:00,
2013-10-26 04:22:00,38.8,31.0,30.65,NNW,331,0.0,2.0,73,0.00,,,0.00,0,weatherlink.com 1.10,2013-10-26 10:22:00,
2013-10-26 04:37:00,35.8,30.0,30.65,NNW,331,1.0,1.0,79,0.00,,,0.00,0,weatherlink.com 1.10,2013-10-26 10:37:00,
2013-10-26 04:52:00,37.0,31.0,30.65,NNW,331,2.0,3.0,78,0.00,,,0.00,0,weatherlink.com 1.10,2013-10-26 10:52:00,
2013-10-26 05:07:00,36.8,30.0,30.66,NNW,331,3.0,4.0,77,0.00,,,0.00,0,weatherlink.com 1.10,2013-10-26 11:07:00,
2013-10-26 05:22:00,36.3,30.0,30.66,NNW,331,4.0,4.0,79,0.00,,,0.00,0,weatherlink.com 1.10,2013-10-26 11:22:00,
2013-10-26 05:37:00,34.6,30.0,30.66,NNW,331,4.0,5.0,82,0.00,,,0.00,0,weatherlink.com 1.10,2013-10-26 11:37:00,
2013-10-26 05:52:00,34.3,30.0,30.66,NE,40,6.0,8.0,83,0.00,,,0.00,0,weatherlink.com 1.10,2013-10-26 11:52:00,
2013-10-26 06:07:00,34.3,30.0,30.66,NNE,19,5.0,7.0,83,0.00,,,0.00,0,weatherlink.com 1.10,2013-10-26 12:07:00,
2013-10-26 06:22:00,34.1,30.0,30.67,NNE,29,5.0,6.0,83,0.00,,,0.00,0,weatherlink.com 1.10,2013-10-26 12:22:00,
2013-10-26 06:37:00,33.8,30.0,30.66,NNE,24,5.0,5.0,84,0.00,,,0.00,0,weatherlink.com 1.10,2013-10-26 12:37:00,
2013-10-26 06:52:00,33.4,29.0,30.66,NNE,21,4.0,6.0,84,0.00,,,0.00,0,weatherlink.com 1.10,2013-10-26 12:52:00,
2013-10-26 07:07:00,33.1,29.0,30.66,NNE,21,4.0,5.0,85,0.00,,,0.00,0,weatherlink.com 1.10,2013-10-26 13:07:00,
2013-10-26 07:22:00,33.1,29.0,30.66,NNE,21,1.0,3.0,85,0.00,,,0.00,0,weatherlink.com 1.10,2013-10-26 13:22:00,
2013-10-26 07:37:00,33.3,29.0,30.66,NNE,21,0.0,3.0,85,0.00,,,0.00,0,weatherlink.com 1.10,2013-10-26 13:37:00,
2013-10-26 07:52:00,33.2,29.0,30.66,NNE,21,3.0,4.0,85,0.00,,,0.00,0,weatherlink.com 1.10,2013-10-26 13:52:00,
2013-10-26 08:07:00,33.8,30.0,30.66,NNE,24,4.0,5.0,84,0.00,,,0.00,0,weatherlink.com 1.10,2013-10-26 14:07:00,
2013-10-26 08:22:00,33.4,29.0,30.67,NNE,24,5.0,6.0,83,0.00,,,0.00,9,weatherlink.com 1.10,2013-10-26 14:22:00,
2013-10-26 08:37:00,33.0,29.0,30.67,NNE,24,4.0,6.0,85,0.00,,,0.00,14,weatherlink.com 1.10,2013-10-26 14:37:00,
2013-10-26 08:53:00,33.0,29.0,30.68,NNE,24,5.0,5.0,84,0.00,,,0.00,47,weatherlink.com 1.10,2013-10-26 14:53:00,
2013-10-26 09:08:00,33.0,29.0,30.68,NNE,24,5.0,6.0,85,0.00,,,0.00,95,weatherlink.com 1.10,2013-10-26 15:08:00,
2013-10-26 09:23:00,33.2,29.0,30.69,NNE,24,2.0,4.0,84,0.00,,,0.00,127,weatherlink.com 1.10,2013-10-26 15:23:00,
2013-10-26 09:38:00,33.3,29.0,30.69,NNE,24,0.0,2.0,84,0.00,,,0.00,169,weatherlink.com 1.10,2013-10-26 15:38:00,
2013-10-26 09:53:00,33.8,29.0,30.69,NNE,24,2.0,3.0,83,0.00,,,0.00,218,weatherlink.com 1.10,2013-10-26 15:53:00,
2013-10-26 10:08:00,33.7,29.0,30.69,NNE,24,0.0,2.0,84,0.00,,,0.00,258,weatherlink.com 1.10,2013-10-26 16:08:00,
2013-10-26 10:23:00,34.3,30.0,30.68,NNE,24,0.0,0.0,84,0.00,,,0.00,288,weatherlink.com 1.10,2013-10-26 16:23:00,
2013-10-26 10:38:00,34.9,30.0,30.69,NNE,24,0.0,1.0,82,0.00,,,0.00,322,weatherlink.com 1.10,2013-10-26 16:38:00,
2013-10-26 10:53:00,34.0,30.0,30.69,NNE,24,4.0,4.0,84,0.00,,,0.00,353,weatherlink.com 1.10,2013-10-26 16:53:00,
2013-10-26 11:08:00,35.1,31.0,30.68,NNE,24,0.0,2.0,84,0.00,,,0.00,381,weatherlink.com 1.10,2013-10-26 17:08:00,
2013-10-26 11:23:00,38.1,33.0,30.68,NNE,24,0.0,0.0,81,0.00,,,0.00,406,weatherlink.com 1.10,2013-10-26 17:23:00,
2013-10-26 11:38:00,39.4,33.0,30.68,NNE,24,0.0,0.0,77,0.00,,,0.00,431,weatherlink.com 1.10,2013-10-26 17:38:00,
2013-10-26 11:53:00,41.1,33.0,30.67,NNE,24,0.0,3.0,73,0.00,,,0.00,455,weatherlink.com 1.10,2013-10-26 17:53:00,
2013-10-26 12:08:00,41.9,33.0,30.66,NNE,24,0.0,3.0,71,0.00,,,0.00,471,weatherlink.com 1.10,2013-10-26 18:08:00,
2013-10-26 12:23:00,43.2,32.0,30.65,West,281,2.0,5.0,66,0.00,,,0.00,485,weatherlink.com 1.10,2013-10-26 18:23:00,
2013-10-26 12:38:00,44.1,33.0,30.64,WSW,250,0.0,6.0,64,0.00,,,0.00,497,weatherlink.com 1.10,2013-10-26 18:38:00,
2013-10-26 12:54:00,45.5,33.0,30.63,WSW,248,1.0,5.0,61,0.00,,,0.00,506,weatherlink.com 1.10,2013-10-26 18:54:00,
2013-10-26 13:09:00,46.7,32.0,30.62,WSW,239,0.0,5.0,58,0.00,,,0.00,512,weatherlink.com 1.10,2013-10-26 19:09:00,
2013-10-26 13:24:00,48.4,32.0,30.61,WSW,239,3.0,5.0,54,0.00,,,0.00,512,weatherlink.com 1.10,2013-10-26 19:24:00,
2013-10-26 13:39:00,49.0,32.0,30.60,WSW,238,2.0,7.0,52,0.00,,,0.00,508,weatherlink.com 1.10,2013-10-26 19:39:00,
2013-10-26 13:54:00,50.2,32.0,30.59,SW,234,0.0,5.0,50,0.00,,,0.00,504,weatherlink.com 1.10,2013-10-26 19:54:00,
2013-10-26 14:09:00,51.7,32.0,30.59,SW,236,0.0,4.0,48,0.00,,,0.00,494,weatherlink.com 1.10,2013-10-26 20:09:00,
2013-10-26 14:24:00,53.4,32.0,30.57,SW,233,0.0,3.0,45,0.00,,,0.00,482,weatherlink.com 1.10,2013-10-26 20:24:00,
2013-10-26 14:39:00,54.0,32.0,30.56,WSW,246,4.0,6.0,44,0.00,,,0.00,464,weatherlink.com 1.10,2013-10-26 20:39:00,
2013-10-26 14:54:00,54.2,32.0,30.55,SW,219,0.0,7.0,43,0.00,,,0.00,446,weatherlink.com 1.10,2013-10-26 20:54:00,
2013-10-26 15:09:00,55.1,32.0,30.55,SW,227,3.0,6.0,42,0.00,,,0.00,425,weatherlink.com 1.10,2013-10-26 21:09:00,
2013-10-26 15:24:00,56.3,32.0,30.54,SW,222,3.0,5.0,40,0.00,,,0.00,404,weatherlink.com 1.10,2013-10-26 21:24:00,
2013-10-26 15:39:00,56.5,32.0,30.53,SW,219,6.0,8.0,40,0.00,,,0.00,376,weatherlink.com 1.10,2013-10-26 21:39:00,
2013-10-26 15:54:00,57.1,32.0,30.53,SW,223,4.0,6.0,39,0.00,,,0.00,348,weatherlink.com 1.10,2013-10-26 21:54:00,
2013-10-26 16:09:00,57.7,32.0,30.52,SW,223,1.0,5.0,38,0.00,,,0.00,320,weatherlink.com 1.10,2013-10-26 22:09:00,
2013-10-26 16:24:00,58.1,32.0,30.52,SW,223,0.0,5.0,38,0.00,,,0.00,285,weatherlink.com 1.10,2013-10-26 22:24:00,
2013-10-26 16:39:00,58.4,32.0,30.51,SW,219,0.0,5.0,37,0.00,,,0.00,243,weatherlink.com 1.10,2013-10-26 22:39:00,
2013-10-26 16:54:00,58.8,32.0,30.50,SW,214,3.0,4.0,37,0.00,,,0.00,195,weatherlink.com 1.10,2013-10-26 22:54:00,
2013-10-26 17:09:00,58.7,32.0,30.50,SW,215,0.0,5.0,37,0.00,,,0.00,148,weatherlink.com 1.10,2013-10-26 23:09:00,
2013-10-26 17:24:00,58.7,33.0,30.50,SW,214,2.0,5.0,38,0.00,,,0.00,105,weatherlink.com 1.10,2013-10-26 23:24:00,
2013-10-26 17:39:00,58.6,32.0,30.49,SW,214,1.0,4.0,37,0.00,,,0.00,65,weatherlink.com 1.10,2013-10-26 23:39:00,
2013-10-26 17:54:00,57.7,33.0,30.49,SW,214,0.0,3.0,39,0.00,,,0.00,18,weatherlink.com 1.10,2013-10-26 23:54:00,
2013-10-26 18:09:00,56.3,33.0,30.48,SW,214,0.0,3.0,41,0.00,,,0.00,12,weatherlink.com 1.10,2013-10-27 00:09:00,
2013-10-26 18:24:00,55.7,32.0,30.48,SW,214,0.0,0.0,41,0.00,,,0.00,5,weatherlink.com 1.10,2013-10-27 00:24:00,
2013-10-26 18:39:00,55.3,33.0,30.48,SW,214,0.0,2.0,43,0.00,,,0.00,0,weatherlink.com 1.10,2013-10-27 00:39:00,
2013-10-26 18:54:00,54.7,33.0,30.48,SW,214,0.0,1.0,44,0.00,,,0.00,0,weatherlink.com 1.10,2013-10-27 00:54:00,
2013-10-26 19:10:00,53.9,32.0,30.48,SW,214,0.0,0.0,43,0.00,,,0.00,0,weatherlink.com 1.10,2013-10-27 01:10:00,
2013-10-26 19:25:00,53.7,31.0,30.48,SW,214,0.0,3.0,43,0.00,,,0.00,0,weatherlink.com 1.10,2013-10-27 01:25:00,
2013-10-26 19:40:00,53.2,32.0,30.48,SW,214,0.0,0.0,44,0.00,,,0.00,0,weatherlink.com 1.10,2013-10-27 01:40:00,
2013-10-26 19:55:00,52.6,31.0,30.48,SW,214,0.0,2.0,44,0.00,,,0.00,0,weatherlink.com 1.10,2013-10-27 01:55:00,
2013-10-26 20:10:00,51.7,31.0,30.48,SW,214,0.0,0.0,45,0.00,,,0.00,0,weatherlink.com 1.10,2013-10-27 02:10:00,
2013-10-26 20:25:00,50.8,31.0,30.48,SW,214,0.0,0.0,46,0.00,,,0.00,0,weatherlink.com 1.10,2013-10-27 02:25:00,
2013-10-26 20:40:00,50.0,30.0,30.47,SW,214,0.0,0.0,47,0.00,,,0.00,0,weatherlink.com 1.10,2013-10-27 02:40:00,
2013-10-26 20:55:00,48.8,30.0,30.47,SSW,213,0.0,3.0,49,0.00,,,0.00,0,weatherlink.com 1.10,2013-10-27 02:55:00,
2013-10-26 21:10:00,49.0,30.0,30.47,SSW,207,1.0,3.0,49,0.00,,,0.00,0,weatherlink.com 1.10,2013-10-27 03:10:00,
2013-10-26 21:25:00,49.5,30.0,30.47,SSW,207,0.0,0.0,48,0.00,,,0.00,0,weatherlink.com 1.10,2013-10-27 03:25:00,
2013-10-26 21:40:00,48.0,30.0,30.47,SSW,201,3.0,4.0,50,0.00,,,0.00,0,weatherlink.com 1.10,2013-10-27 03:40:00,
2013-10-26 21:55:00,46.2,29.0,30.46,SSW,211,6.0,8.0,52,0.00,,,0.00,0,weatherlink.com 1.10,2013-10-27 03:55:00,
2013-10-26 22:10:00,43.6,28.0,30.46,SSW,200,6.0,8.0,55,0.00,,,0.00,0,weatherlink.com 1.10,2013-10-27 04:10:00,
2013-10-26 22:25:00,44.5,29.0,30.46,SSW,192,8.0,9.0,55,0.00,,,0.00,0,weatherlink.com 1.10,2013-10-27 04:25:00,
2013-10-26 22:40:00,44.8,30.0,30.45,South,180,3.0,9.0,57,0.00,,,0.00,0,weatherlink.com 1.10,2013-10-27 04:40:00,
2013-10-26 22:55:00,44.8,30.0,30.45,SSW,198,6.0,9.0,56,0.00,,,0.00,0,weatherlink.com 1.10,2013-10-27 04:55:00,
2013-10-26 23:10:00,44.6,30.0,30.45,South,186,2.0,7.0,56,0.00,,,0.00,0,weatherlink.com 1.10,2013-10-27 05:10:00,
2013-10-26 23:25:00,44.3,30.0,30.44,South,183,3.0,5.0,58,0.00,,,0.00,0,weatherlink.com 1.10,2013-10-27 05:25:00,
2013-10-26 23:40:00,45.4,29.0,30.44,SSE,161,0.0,3.0,54,0.00,,,0.00,0,weatherlink.com 1.10,2013-10-27 05:40:00,
2013-10-26 23:55:00,44.2,29.0,30.44,SSE,161,0.0,2.0,55,0.00,,,0.00,0,weatherlink.com 1.10,2013-10-27 05:55:00,